createdAt,value
2017-11-11T00:01:16.042Z,4.80
2017-11-11T00:03:43.619Z,4.80
2017-11-11T00:06:11.199Z,4.90
2017-11-11T00:08:39.584Z,5.00
2017-11-11T00:11:07.152Z,5.00
2017-11-11T00:13:35.525Z,5.00
2017-11-11T00:16:03.116Z,5.00
2017-11-11T00:18:30.678Z,5.00
2017-11-11T00:20:58.262Z,5.10
2017-11-11T00:23:25.842Z,5.20
2017-11-11T00:25:53.460Z,5.20
2017-11-11T00:28:21.782Z,5.20
2017-11-11T00:30:49.378Z,5.20
2017-11-11T00:33:16.971Z,5.20
2017-11-11T00:35:44.540Z,5.20
2017-11-11T00:38:12.130Z,5.20
2017-11-11T00:40:39.722Z,5.20
2017-11-11T00:43:07.272Z,5.20
2017-11-11T00:45:34.864Z,5.20
2017-11-11T00:48:03.215Z,5.10
2017-11-11T00:50:30.822Z,5.10
2017-11-11T00:52:59.157Z,5.00
2017-11-11T00:55:26.712Z,5.00
2017-11-11T00:57:54.296Z,4.90
2017-11-11T01:00:21.873Z,4.80
2017-11-11T01:02:50.248Z,4.60
2017-11-11T01:05:17.816Z,4.60
2017-11-11T01:07:46.160Z,4.60
2017-11-11T01:10:14.513Z,4.70
2017-11-11T01:12:42.098Z,4.70
2017-11-11T01:15:09.695Z,4.80
2017-11-11T01:17:38.039Z,4.80
2017-11-11T01:20:05.609Z,4.80
2017-11-11T01:22:33.219Z,4.90
2017-11-11T01:25:01.569Z,4.90
2017-11-11T01:27:29.157Z,4.90
2017-11-11T01:29:57.488Z,5.00
2017-11-11T01:32:25.035Z,4.90
2017-11-11T01:34:52.634Z,5.00
2017-11-11T01:37:20.205Z,5.00
2017-11-11T01:39:48.584Z,4.90
2017-11-11T01:42:16.164Z,4.90
2017-11-11T01:44:44.501Z,4.90
2017-11-11T01:47:12.089Z,4.90
2017-11-11T01:49:40.444Z,4.90
2017-11-11T01:52:08.048Z,4.90
2017-11-11T01:54:36.384Z,4.90
2017-11-11T01:57:04.717Z,4.80
2017-11-11T01:59:33.065Z,4.70
2017-11-11T02:02:00.653Z,4.70
2017-11-11T02:04:28.986Z,4.50
2017-11-11T02:06:56.595Z,4.50
2017-11-11T02:09:24.923Z,4.40
2017-11-11T02:11:52.500Z,4.40
2017-11-11T02:14:20.086Z,4.40
2017-11-11T02:16:47.652Z,4.30
2017-11-11T02:19:15.997Z,4.20
2017-11-11T02:21:43.591Z,4.20
2017-11-11T02:24:11.182Z,4.20
2017-11-11T02:26:38.786Z,4.10
2017-11-11T02:29:07.164Z,4.00
2017-11-11T02:31:34.751Z,4.00
2017-11-11T02:34:02.325Z,4.00
2017-11-11T02:36:30.697Z,4.00
2017-11-11T02:38:58.295Z,4.00
2017-11-11T02:41:25.882Z,4.00
2017-11-11T02:43:53.489Z,4.00
2017-11-11T02:46:21.837Z,4.10
2017-11-11T02:48:49.409Z,4.00
2017-11-11T02:51:17.016Z,4.20
2017-11-11T02:53:45.338Z,4.20
2017-11-11T02:56:12.926Z,4.20
2017-11-11T02:58:40.516Z,4.30
2017-11-11T03:01:08.873Z,4.30
2017-11-11T03:03:36.446Z,4.30
2017-11-11T03:06:04.781Z,4.40
2017-11-11T03:08:32.367Z,4.40
2017-11-11T03:10:59.948Z,4.40
2017-11-11T03:13:28.304Z,4.40
2017-11-11T03:15:55.875Z,4.40
2017-11-11T03:18:23.490Z,4.40
2017-11-11T03:20:51.073Z,4.40
2017-11-11T03:23:18.648Z,4.40
2017-11-11T03:25:46.195Z,4.40
2017-11-11T03:28:13.736Z,4.50
2017-11-11T03:30:41.310Z,4.50
2017-11-11T03:33:08.840Z,4.50
2017-11-11T03:35:37.155Z,4.60
2017-11-11T03:38:04.701Z,4.60
2017-11-11T03:40:32.242Z,4.60
2017-11-11T03:43:00.588Z,4.70
2017-11-11T03:45:28.116Z,4.60
2017-11-11T03:47:55.660Z,4.60
2017-11-11T03:50:23.230Z,4.60
2017-11-11T03:52:50.766Z,4.60
2017-11-11T03:55:19.097Z,4.60
2017-11-11T03:57:46.628Z,4.60
2017-11-11T04:00:14.172Z,4.60
2017-11-11T04:02:42.483Z,4.50
2017-11-11T04:05:10.011Z,4.50
2017-11-11T04:07:38.357Z,4.50
2017-11-11T04:10:05.918Z,4.50
2017-11-11T04:12:33.441Z,4.50
2017-11-11T04:15:00.993Z,4.50
2017-11-11T04:17:28.558Z,4.50
2017-11-11T04:19:56.138Z,4.50
2017-11-11T04:22:23.685Z,4.50
2017-11-11T04:24:51.222Z,4.50
2017-11-11T04:27:19.564Z,4.40
2017-11-11T04:29:47.110Z,4.40
2017-11-11T04:32:14.688Z,4.40
2017-11-11T04:34:42.232Z,4.40
2017-11-11T04:37:09.755Z,4.30
2017-11-11T04:39:38.079Z,4.40
2017-11-11T04:42:05.617Z,4.40
2017-11-11T04:44:33.188Z,4.40
2017-11-11T04:47:00.726Z,4.40
2017-11-11T04:49:28.273Z,4.40
2017-11-11T04:51:56.599Z,4.40
2017-11-11T04:54:24.164Z,4.40
2017-11-11T04:56:51.727Z,4.40
2017-11-11T04:59:19.262Z,4.40
2017-11-11T05:01:46.785Z,4.50
2017-11-11T05:04:14.330Z,4.40
2017-11-11T05:06:41.877Z,4.50
2017-11-11T05:09:09.442Z,4.60
2017-11-11T05:11:36.992Z,4.60
2017-11-11T05:14:04.518Z,4.70
2017-11-11T05:16:32.080Z,4.70
2017-11-11T05:18:59.631Z,4.70
2017-11-11T05:21:27.979Z,4.80
2017-11-11T05:23:55.524Z,4.80
2017-11-11T05:26:23.070Z,4.90
2017-11-11T05:28:50.618Z,4.90
2017-11-11T05:31:18.164Z,5.00
2017-11-11T05:33:46.491Z,5.00
2017-11-11T05:36:14.061Z,5.00
2017-11-11T05:38:42.362Z,5.00
2017-11-11T05:41:09.914Z,5.00
2017-11-11T05:43:37.437Z,5.10
2017-11-11T05:46:05.007Z,5.10
2017-11-11T05:48:32.534Z,5.10
2017-11-11T05:51:00.091Z,5.10
2017-11-11T05:53:28.410Z,5.10
2017-11-11T05:55:56.710Z,5.10
2017-11-11T05:58:24.280Z,5.10
2017-11-11T06:00:51.825Z,5.10
2017-11-11T06:03:19.368Z,5.20
2017-11-11T06:05:46.954Z,5.20
2017-11-11T06:08:14.509Z,5.20
2017-11-11T06:10:42.100Z,5.20
2017-11-11T06:13:10.418Z,5.20
2017-11-11T06:15:37.972Z,5.20
2017-11-11T06:18:05.535Z,5.20
2017-11-11T06:20:33.067Z,5.20
2017-11-11T06:23:01.383Z,5.30
2017-11-11T06:25:28.924Z,5.30
2017-11-11T06:27:57.233Z,5.30
2017-11-11T06:30:24.786Z,5.30
2017-11-11T06:32:52.341Z,5.30
2017-11-11T06:35:19.925Z,5.30
2017-11-11T06:37:47.455Z,5.30
2017-11-11T06:40:14.996Z,5.30
2017-11-11T06:42:43.306Z,5.30
2017-11-11T06:45:10.858Z,5.40
2017-11-11T06:47:38.429Z,5.40
2017-11-11T06:50:05.990Z,5.30
2017-11-11T06:52:33.577Z,5.40
2017-11-11T06:55:01.160Z,5.40
2017-11-11T06:57:28.750Z,5.40
2017-11-11T06:59:57.092Z,5.40
2017-11-11T07:02:24.619Z,5.40
2017-11-11T07:04:52.151Z,5.40
2017-11-11T07:07:20.473Z,5.50
2017-11-11T07:09:48.019Z,5.50
2017-11-11T07:12:15.570Z,5.50
2017-11-11T07:14:43.116Z,5.60
2017-11-11T07:17:11.424Z,5.60
2017-11-11T07:19:38.991Z,5.60
2017-11-11T07:22:06.510Z,5.70
2017-11-11T07:24:34.865Z,5.70
2017-11-11T07:27:02.416Z,5.70
2017-11-11T07:29:29.966Z,5.80
2017-11-11T07:31:57.537Z,5.80
2017-11-11T07:34:25.070Z,5.80
2017-11-11T07:36:52.628Z,5.80
2017-11-11T07:39:20.921Z,5.80
2017-11-11T07:41:48.445Z,5.80
2017-11-11T07:44:16.788Z,5.80
2017-11-11T07:46:44.317Z,5.80
2017-11-11T07:49:11.879Z,5.80
2017-11-11T07:51:39.432Z,5.80
2017-11-11T07:54:06.980Z,5.70
2017-11-11T07:56:35.271Z,5.70
2017-11-11T07:59:02.841Z,5.70
2017-11-11T08:01:30.384Z,5.70
2017-11-11T08:03:58.706Z,5.50
2017-11-11T08:06:26.236Z,5.50
2017-11-11T08:08:53.782Z,5.50
2017-11-11T08:11:22.099Z,5.50
2017-11-11T08:13:49.684Z,5.50
2017-11-11T08:16:17.245Z,5.50
2017-11-11T08:18:44.800Z,5.50
2017-11-11T08:21:12.347Z,5.50
2017-11-11T08:23:39.897Z,5.50
2017-11-11T08:26:07.485Z,5.50
2017-11-11T08:28:35.028Z,5.50
2017-11-11T08:31:02.561Z,5.50
2017-11-11T08:33:30.122Z,5.50
2017-11-11T08:35:58.449Z,5.50
2017-11-11T08:38:26.023Z,5.50
2017-11-11T08:40:53.558Z,5.50
2017-11-11T08:43:21.121Z,5.50
2017-11-11T08:45:48.656Z,5.50
2017-11-11T08:48:16.206Z,5.60
2017-11-11T08:50:44.546Z,5.60
2017-11-11T08:53:12.075Z,5.60
2017-11-11T08:55:39.620Z,5.60
2017-11-11T08:58:07.205Z,5.60
2017-11-11T09:00:34.742Z,5.70
2017-11-11T09:03:02.328Z,5.60
2017-11-11T09:05:29.871Z,5.60
2017-11-11T09:07:57.420Z,5.60
2017-11-11T09:10:25.737Z,5.60
2017-11-11T09:12:53.280Z,5.60
2017-11-11T09:15:20.865Z,5.60
2017-11-11T09:17:48.410Z,5.60
2017-11-11T09:20:15.947Z,5.70
2017-11-11T09:22:43.521Z,5.80
2017-11-11T09:25:11.071Z,5.80
2017-11-11T09:27:38.641Z,5.80
2017-11-11T09:30:06.194Z,5.80
2017-11-11T09:32:33.749Z,5.80
2017-11-11T09:35:02.069Z,5.90
2017-11-11T09:37:29.643Z,5.80
2017-11-11T09:39:57.172Z,5.90
2017-11-11T09:42:24.714Z,5.90
2017-11-11T09:44:52.267Z,5.90
2017-11-11T09:47:20.602Z,5.90
2017-11-11T09:49:48.170Z,5.90
2017-11-11T09:52:15.712Z,5.90
2017-11-11T09:54:43.261Z,5.90
2017-11-11T09:57:10.813Z,5.90
2017-11-11T09:59:38.366Z,5.90
2017-11-11T10:02:05.939Z,5.90
2017-11-11T10:04:33.478Z,5.90
2017-11-11T10:07:01.095Z,5.90
2017-11-11T10:09:28.644Z,6.00
2017-11-11T10:11:56.187Z,6.10
2017-11-11T10:14:23.763Z,6.20
2017-11-11T10:16:51.293Z,6.30
2017-11-11T10:19:19.646Z,6.20
2017-11-11T10:21:47.206Z,6.20
2017-11-11T10:24:15.617Z,6.20
2017-11-11T10:26:43.960Z,6.20
2017-11-11T10:29:11.519Z,6.20
2017-11-11T10:31:39.070Z,6.20
2017-11-11T10:34:06.621Z,6.20
2017-11-11T10:36:34.202Z,6.10
2017-11-11T10:39:02.573Z,6.20
2017-11-11T10:41:30.107Z,6.20
2017-11-11T10:43:57.666Z,6.30
2017-11-11T10:46:25.190Z,6.30
2017-11-11T10:48:52.785Z,6.20
2017-11-11T10:51:20.338Z,6.20
2017-11-11T10:53:48.663Z,6.20
2017-11-11T10:56:16.236Z,6.20
2017-11-11T10:58:43.770Z,6.10
2017-11-11T11:01:11.330Z,6.10
2017-11-11T11:03:38.919Z,6.00
2017-11-11T11:06:06.482Z,6.00
2017-11-11T11:08:34.065Z,6.10
2017-11-11T11:11:01.615Z,6.10
2017-11-11T11:13:29.141Z,6.20
2017-11-11T11:15:56.723Z,6.20
2017-11-11T11:18:24.282Z,6.20
2017-11-11T11:20:51.873Z,6.20
2017-11-11T11:23:19.402Z,6.20
2017-11-11T11:25:47.037Z,6.20
2017-11-11T11:28:14.594Z,6.30
2017-11-11T11:30:42.149Z,6.30
2017-11-11T11:33:09.701Z,6.30
2017-11-11T11:35:38.039Z,6.40
2017-11-11T11:38:05.596Z,6.40
2017-11-11T11:40:33.897Z,6.50
2017-11-11T11:43:01.463Z,6.40
2017-11-11T11:45:29.006Z,6.50
2017-11-11T11:47:57.325Z,6.50
2017-11-11T11:50:25.692Z,6.60
2017-11-11T11:52:53.998Z,6.60
2017-11-11T11:55:21.572Z,6.60
2017-11-11T11:57:49.098Z,6.60
2017-11-11T12:00:17.414Z,6.60
2017-11-11T12:02:44.938Z,6.60
2017-11-11T12:05:13.249Z,6.70
2017-11-11T12:07:40.820Z,6.70
2017-11-11T12:10:08.360Z,6.70
2017-11-11T12:12:35.933Z,6.70
2017-11-11T12:15:03.470Z,6.80
2017-11-11T12:17:31.780Z,6.90
2017-11-11T12:19:59.355Z,6.90
2017-11-11T12:22:26.939Z,6.90
2017-11-11T12:24:55.294Z,6.90
2017-11-11T12:27:22.830Z,6.80
2017-11-11T12:29:50.376Z,6.90
2017-11-11T12:32:18.714Z,6.90
2017-11-11T12:34:46.254Z,6.90
2017-11-11T12:37:13.822Z,6.90
2017-11-11T12:39:41.357Z,6.80
2017-11-11T12:42:08.903Z,6.80
2017-11-11T12:44:36.481Z,6.80
2017-11-11T12:47:04.010Z,6.90
2017-11-11T12:49:31.589Z,6.90
2017-11-11T12:51:59.905Z,6.90
2017-11-11T12:54:28.280Z,6.90
2017-11-11T12:56:55.839Z,6.90
2017-11-11T12:59:23.392Z,7.00
2017-11-11T13:01:50.978Z,7.00
2017-11-11T13:04:18.638Z,7.00
2017-11-11T13:06:46.165Z,7.00
2017-11-11T13:09:14.504Z,7.00
2017-11-11T13:11:42.059Z,7.00
2017-11-11T13:14:09.631Z,7.00
2017-11-11T13:16:37.167Z,7.10
2017-11-11T13:19:04.693Z,7.10
2017-11-11T13:21:33.001Z,7.20
2017-11-11T13:24:00.548Z,7.10
2017-11-11T13:26:28.146Z,7.20
2017-11-11T13:28:55.702Z,7.20
2017-11-11T13:31:23.252Z,7.20
2017-11-11T13:33:50.817Z,7.20
2017-11-11T13:36:18.376Z,7.20
2017-11-11T13:38:46.038Z,7.20
2017-11-11T13:41:13.585Z,7.20
2017-11-11T13:43:41.186Z,7.10
2017-11-11T13:46:08.753Z,7.10
2017-11-11T13:48:36.295Z,7.20
2017-11-11T13:51:03.862Z,7.20
2017-11-11T13:53:31.420Z,7.30
2017-11-11T13:55:58.978Z,7.30
2017-11-11T13:58:26.539Z,7.30
2017-11-11T14:00:54.077Z,7.30
2017-11-11T14:03:21.658Z,7.30
2017-11-11T14:05:49.226Z,7.20
2017-11-11T14:08:16.820Z,7.20
2017-11-11T14:10:44.357Z,7.10
2017-11-11T14:13:11.926Z,7.10
2017-11-11T14:15:39.474Z,7.10
2017-11-11T14:18:07.072Z,7.10
2017-11-11T14:20:34.630Z,7.00
2017-11-11T14:23:02.162Z,7.00
2017-11-11T14:25:29.727Z,7.10
2017-11-11T14:27:57.291Z,7.10
2017-11-11T14:30:24.880Z,7.10
2017-11-11T14:32:52.423Z,7.10
2017-11-11T14:35:19.966Z,7.10
2017-11-11T14:37:47.541Z,7.10
2017-11-11T14:40:15.082Z,7.10
2017-11-11T14:42:42.655Z,7.10
2017-11-11T14:45:10.210Z,7.10
2017-11-11T14:47:37.789Z,7.10
2017-11-11T14:50:05.358Z,7.10
2017-11-11T14:52:32.925Z,7.10
2017-11-11T14:55:00.483Z,7.10
2017-11-11T14:57:28.048Z,7.10
2017-11-11T14:59:55.621Z,7.00
2017-11-11T15:02:23.164Z,7.00
2017-11-11T15:04:50.720Z,7.00
2017-11-11T15:07:18.309Z,7.00
2017-11-11T15:09:46.638Z,7.00
2017-11-11T15:12:14.226Z,7.00
2017-11-11T15:14:41.768Z,6.90
2017-11-11T15:17:09.305Z,6.70
2017-11-11T15:19:36.944Z,6.70
2017-11-11T15:22:05.300Z,6.50
2017-11-11T15:24:32.873Z,6.50
2017-11-11T15:27:00.411Z,6.50
2017-11-11T15:29:27.987Z,6.40
2017-11-11T15:31:55.533Z,6.30
2017-11-11T15:34:23.850Z,6.30
2017-11-11T15:36:52.178Z,6.20
2017-11-11T15:39:19.727Z,6.20
2017-11-11T15:41:47.304Z,6.20
2017-11-11T15:44:14.862Z,6.20
2017-11-11T15:46:42.446Z,6.20
2017-11-11T15:49:09.990Z,6.20
2017-11-11T15:51:37.550Z,6.20
2017-11-11T15:54:05.092Z,6.20
2017-11-11T15:56:32.640Z,6.20
2017-11-11T15:59:01.044Z,6.20
2017-11-11T16:01:28.606Z,6.20
2017-11-11T16:03:56.200Z,6.20
2017-11-11T16:06:23.751Z,6.10
2017-11-11T16:08:51.290Z,6.10
2017-11-11T16:11:18.905Z,6.10
2017-11-11T16:13:46.445Z,6.10
2017-11-11T16:16:14.043Z,6.10
2017-11-11T16:18:42.348Z,6.00
2017-11-11T16:21:09.890Z,6.00
2017-11-11T16:23:38.233Z,6.00
2017-11-11T16:26:05.771Z,6.00
2017-11-11T16:28:33.332Z,6.00
2017-11-11T16:31:00.892Z,6.00
2017-11-11T16:33:28.431Z,5.90
2017-11-11T16:35:56.017Z,5.90
2017-11-11T16:38:23.560Z,5.80
2017-11-11T16:40:51.139Z,5.70
2017-11-11T16:43:18.667Z,5.60
2017-11-11T16:45:46.978Z,5.40
2017-11-11T16:48:14.558Z,5.40
2017-11-11T16:50:42.125Z,5.40
2017-11-11T16:53:09.710Z,5.40
2017-11-11T16:55:37.242Z,5.30
2017-11-11T16:58:04.777Z,5.30
2017-11-11T17:00:32.326Z,5.20
2017-11-11T17:02:59.873Z,5.30
2017-11-11T17:05:27.476Z,5.30
2017-11-11T17:07:55.024Z,5.30
2017-11-11T17:10:22.551Z,5.20
2017-11-11T17:12:50.884Z,5.10
2017-11-11T17:15:18.538Z,5.00
2017-11-11T17:17:46.121Z,5.00
2017-11-11T17:20:13.684Z,5.00
2017-11-11T17:22:42.109Z,4.90
2017-11-11T17:25:10.423Z,4.80
2017-11-11T17:27:37.966Z,4.80
2017-11-11T17:30:05.546Z,4.70
2017-11-11T17:32:33.086Z,4.70
2017-11-11T17:35:00.632Z,4.70
2017-11-11T17:37:28.949Z,4.70
2017-11-11T17:39:56.502Z,4.70
2017-11-11T17:42:24.078Z,4.70
2017-11-11T17:44:51.642Z,4.70
2017-11-11T17:47:19.263Z,4.80
2017-11-11T17:49:47.582Z,4.80
2017-11-11T17:52:15.137Z,4.80
2017-11-11T17:54:43.576Z,4.80
2017-11-11T17:57:11.886Z,4.90
2017-11-11T17:59:39.464Z,4.90
2017-11-11T18:02:06.997Z,4.90
2017-11-11T18:04:34.562Z,5.00
2017-11-11T18:07:02.129Z,5.00
2017-11-11T18:09:29.693Z,5.10
2017-11-11T18:11:57.250Z,5.00
2017-11-11T18:14:24.788Z,5.10
2017-11-11T18:16:53.321Z,5.10
2017-11-11T18:19:20.882Z,5.10
2017-11-11T18:21:48.427Z,5.00
2017-11-11T18:24:16.013Z,5.00
2017-11-11T18:26:43.626Z,4.90
2017-11-11T18:29:11.970Z,4.80
2017-11-11T18:31:39.512Z,4.80
2017-11-11T18:34:07.064Z,4.80
2017-11-11T18:36:34.630Z,4.70
2017-11-11T18:39:02.200Z,4.70
2017-11-11T18:41:29.788Z,4.70
2017-11-11T18:43:57.326Z,4.70
2017-11-11T18:46:25.688Z,4.70
2017-11-11T18:48:53.249Z,4.70
2017-11-11T18:51:20.821Z,4.70
2017-11-11T18:53:48.394Z,4.70
2017-11-11T18:56:15.930Z,4.60
2017-11-11T18:58:43.509Z,4.60
2017-11-11T19:01:11.135Z,4.60
2017-11-11T19:03:39.474Z,4.60
2017-11-11T19:06:07.115Z,4.60
2017-11-11T19:08:34.650Z,4.50
2017-11-11T19:11:02.224Z,4.50
2017-11-11T19:13:29.759Z,4.40
2017-11-11T19:15:58.101Z,4.50
2017-11-11T19:18:25.644Z,4.50
2017-11-11T19:20:53.186Z,4.60
2017-11-11T19:23:20.752Z,4.60
2017-11-11T19:25:48.306Z,4.70
2017-11-11T19:28:15.873Z,4.70
2017-11-11T19:30:43.452Z,4.70
2017-11-11T19:33:11.035Z,4.70
2017-11-11T19:35:38.638Z,4.70
2017-11-11T19:38:06.949Z,4.50
2017-11-11T19:40:34.532Z,4.50
2017-11-11T19:43:02.089Z,4.40
2017-11-11T19:45:29.619Z,4.30
2017-11-11T19:47:57.190Z,4.20
2017-11-11T19:50:24.738Z,4.20
2017-11-11T19:52:52.299Z,4.10
2017-11-11T19:55:19.838Z,4.00
2017-11-11T19:57:48.141Z,3.90
2017-11-11T20:00:16.279Z,3.90
2017-11-11T20:02:43.846Z,3.90
2017-11-11T20:05:12.184Z,3.80
2017-11-11T20:07:39.725Z,3.80
2017-11-11T20:10:07.305Z,3.70
2017-11-11T20:12:34.853Z,3.70
2017-11-11T20:15:02.400Z,3.60
2017-11-11T20:17:29.973Z,3.60
2017-11-11T20:19:57.531Z,3.50
2017-11-11T20:22:25.121Z,3.50
2017-11-11T20:24:52.667Z,3.40
2017-11-11T20:27:20.236Z,3.30
2017-11-11T20:29:47.781Z,3.30
2017-11-11T20:32:15.343Z,3.20
2017-11-11T20:34:42.893Z,3.20
2017-11-11T20:37:10.471Z,3.10
2017-11-11T20:39:38.020Z,3.10
2017-11-11T20:42:05.566Z,3.10
2017-11-11T20:44:33.905Z,3.10
2017-11-11T20:47:01.456Z,3.10
2017-11-11T20:49:29.029Z,3.10
2017-11-11T20:51:56.599Z,3.10
2017-11-11T20:54:24.163Z,3.10
2017-11-11T20:56:51.710Z,3.10
2017-11-11T20:59:19.270Z,3.10
2017-11-11T21:01:46.827Z,3.10
2017-11-11T21:04:14.390Z,3.10
2017-11-11T21:06:41.954Z,3.10
2017-11-11T21:09:09.502Z,3.10
2017-11-11T21:11:37.118Z,3.10
2017-11-11T21:14:05.433Z,3.00
2017-11-11T21:16:33.020Z,3.00
2017-11-11T21:19:00.571Z,3.00
2017-11-11T21:21:28.136Z,3.00
2017-11-11T21:23:55.697Z,3.00
2017-11-11T21:26:23.254Z,3.10
2017-11-11T21:28:50.854Z,3.00
2017-11-11T21:31:18.479Z,3.00
2017-11-11T21:33:46.074Z,3.00
2017-11-11T21:36:13.658Z,3.00
2017-11-11T21:38:41.967Z,2.90
2017-11-11T21:41:09.524Z,2.90
2017-11-11T21:43:37.063Z,2.90
2017-11-11T21:46:05.382Z,2.80
2017-11-11T21:48:32.942Z,2.80
2017-11-11T21:51:00.475Z,2.80
2017-11-11T21:53:28.803Z,2.80
2017-11-11T21:55:56.360Z,2.80
2017-11-11T21:58:23.890Z,2.80
2017-11-11T22:00:51.487Z,2.70
2017-11-11T22:03:19.045Z,2.70
2017-11-11T22:05:46.603Z,2.70
2017-11-11T22:08:14.157Z,2.70
2017-11-11T22:10:41.725Z,2.70
2017-11-11T22:13:09.272Z,2.70
2017-11-11T22:15:36.817Z,2.70
2017-11-11T22:18:04.385Z,2.70
2017-11-11T22:20:31.935Z,2.70
2017-11-11T22:23:00.268Z,2.70
2017-11-11T22:25:27.798Z,2.60
2017-11-11T22:27:55.357Z,2.60
2017-11-11T22:30:22.933Z,2.60
2017-11-11T22:32:50.485Z,2.50
2017-11-11T22:35:18.084Z,2.50
2017-11-11T22:37:45.648Z,2.50
2017-11-11T22:40:13.182Z,2.40
2017-11-11T22:42:40.752Z,2.40
2017-11-11T22:45:09.081Z,2.50
2017-11-11T22:47:37.426Z,2.40
2017-11-11T22:50:04.968Z,2.40
2017-11-11T22:52:32.507Z,2.40
2017-11-11T22:55:00.076Z,2.30
2017-11-11T22:57:27.642Z,2.30
2017-11-11T22:59:55.207Z,2.30
2017-11-11T23:02:22.751Z,2.20
2017-11-11T23:04:50.313Z,2.20
2017-11-11T23:07:17.874Z,2.10
2017-11-11T23:09:45.410Z,2.20
2017-11-11T23:12:13.755Z,2.10
2017-11-11T23:14:42.088Z,2.20
2017-11-11T23:17:09.631Z,2.10
2017-11-11T23:19:37.969Z,2.20
2017-11-11T23:22:05.528Z,2.20
2017-11-11T23:24:33.116Z,2.20
2017-11-11T23:27:00.686Z,2.20
2017-11-11T23:29:28.226Z,2.20
2017-11-11T23:31:55.787Z,2.20
2017-11-11T23:34:23.325Z,2.20
2017-11-11T23:36:50.877Z,2.30
2017-11-11T23:39:18.425Z,2.30
2017-11-11T23:41:46.004Z,2.40
2017-11-11T23:44:13.548Z,2.40
2017-11-11T23:46:41.093Z,2.40
2017-11-11T23:49:09.422Z,2.40
2017-11-11T23:51:36.971Z,2.40
2017-11-11T23:54:04.531Z,2.40
2017-11-11T23:56:32.066Z,2.30
2017-11-11T23:59:00.405Z,2.30
